sensor_id;sensor_type;location;lat;lon;timestamp;P1;durP1;ratioP1;P2;durP2;ratioP2
37309;SDS011;23195;47.744;7.358;2022-07-22T00:01:43;7.70;;;6.87;;
37309;SDS011;23195;47.744;7.358;2022-07-22T00:04:09;8.33;;;7.50;;
37309;SDS011;23195;47.744;7.358;2022-07-22T00:06:35;7.63;;;6.63;;
37309;SDS011;23195;47.744;7.358;2022-07-22T00:09:01;10.23;;;7.57;;
37309;SDS011;23195;47.744;7.358;2022-07-22T00:11:28;9.27;;;7.33;;
37309;SDS011;23195;47.744;7.358;2022-07-22T00:13:54;8.13;;;7.33;;
37309;SDS011;23195;47.744;7.358;2022-07-22T00:16:20;11.23;;;7.50;;
37309;SDS011;23195;47.744;7.358;2022-07-22T00:18:46;9.10;;;7.33;;
37309;SDS011;23195;47.744;7.358;2022-07-22T00:21:11;9.27;;;7.80;;
37309;SDS011;23195;47.744;7.358;2022-07-22T00:23:37;8.70;;;7.80;;
37309;SDS011;23195;47.744;7.358;2022-07-22T00:26:03;8.60;;;7.47;;
37309;SDS011;23195;47.744;7.358;2022-07-22T00:28:29;8.60;;;7.33;;
37309;SDS011;23195;47.744;7.358;2022-07-22T00:30:55;9.10;;;7.97;;
37309;SDS011;23195;47.744;7.358;2022-07-22T00:33:21;10.60;;;7.83;;
37309;SDS011;23195;47.744;7.358;2022-07-22T00:35:50;9.10;;;7.60;;
37309;SDS011;23195;47.744;7.358;2022-07-22T00:38:16;9.33;;;7.37;;
37309;SDS011;23195;47.744;7.358;2022-07-22T00:40:41;10.77;;;8.07;;
37309;SDS011;23195;47.744;7.358;2022-07-22T00:43:07;9.00;;;7.13;;
37309;SDS011;23195;47.744;7.358;2022-07-22T00:45:33;10.20;;;7.77;;
37309;SDS011;23195;47.744;7.358;2022-07-22T00:47:59;9.10;;;8.20;;
37309;SDS011;23195;47.744;7.358;2022-07-22T00:50:27;10.43;;;8.30;;
37309;SDS011;23195;47.744;7.358;2022-07-22T00:52:53;9.80;;;7.97;;
37309;SDS011;23195;47.744;7.358;2022-07-22T00:55:19;9.83;;;8.43;;
37309;SDS011;23195;47.744;7.358;2022-07-22T00:57:45;9.07;;;8.13;;
37309;SDS011;23195;47.744;7.358;2022-07-22T01:00:13;11.27;;;8.70;;
37309;SDS011;23195;47.744;7.358;2022-07-22T01:02:44;9.57;;;8.67;;
37309;SDS011;23195;47.744;7.358;2022-07-22T01:05:10;10.90;;;8.70;;
37309;SDS011;23195;47.744;7.358;2022-07-22T01:07:36;10.17;;;8.63;;
37309;SDS011;23195;47.744;7.358;2022-07-22T01:10:03;13.97;;;8.80;;
37309;SDS011;23195;47.744;7.358;2022-07-22T01:12:30;12.57;;;8.60;;
37309;SDS011;23195;47.744;7.358;2022-07-22T01:14:55;13.30;;;9.30;;
37309;SDS011;23195;47.744;7.358;2022-07-22T01:17:21;9.80;;;8.80;;
37309;SDS011;23195;47.744;7.358;2022-07-22T01:19:47;10.00;;;9.00;;
37309;SDS011;23195;47.744;7.358;2022-07-22T01:22:13;12.67;;;8.83;;
37309;SDS011;23195;47.744;7.358;2022-07-22T01:24:39;10.87;;;9.20;;
37309;SDS011;23195;47.744;7.358;2022-07-22T01:27:04;10.43;;;9.00;;
37309;SDS011;23195;47.744;7.358;2022-07-22T01:29:30;10.27;;;9.00;;
37309;SDS011;23195;47.744;7.358;2022-07-22T01:31:57;11.17;;;9.03;;
37309;SDS011;23195;47.744;7.358;2022-07-22T01:34:23;12.30;;;8.87;;
37309;SDS011;23195;47.744;7.358;2022-07-22T01:36:51;10.90;;;9.07;;
37309;SDS011;23195;47.744;7.358;2022-07-22T01:39:17;10.33;;;9.23;;
37309;SDS011;23195;47.744;7.358;2022-07-22T01:41:43;10.40;;;9.20;;
37309;SDS011;23195;47.744;7.358;2022-07-22T01:44:11;9.50;;;8.60;;
37309;SDS011;23195;47.744;7.358;2022-07-22T01:46:37;11.30;;;8.87;;
37309;SDS011;23195;47.744;7.358;2022-07-22T01:49:05;10.40;;;9.40;;
37309;SDS011;23195;47.744;7.358;2022-07-22T01:51:31;10.37;;;8.63;;
37309;SDS011;23195;47.744;7.358;2022-07-22T01:53:57;12.63;;;9.37;;
37309;SDS011;23195;47.744;7.358;2022-07-22T01:56:23;9.40;;;8.40;;
37309;SDS011;23195;47.744;7.358;2022-07-22T01:58:49;10.23;;;8.90;;
37309;SDS011;23195;47.744;7.358;2022-07-22T02:01:15;11.70;;;9.23;;
37309;SDS011;23195;47.744;7.358;2022-07-22T02:03:40;12.07;;;8.87;;
37309;SDS011;23195;47.744;7.358;2022-07-22T02:06:06;12.57;;;8.93;;
37309;SDS011;23195;47.744;7.358;2022-07-22T02:08:32;9.73;;;8.73;;
37309;SDS011;23195;47.744;7.358;2022-07-22T02:10:58;10.43;;;9.33;;
37309;SDS011;23195;47.744;7.358;2022-07-22T02:13:24;11.97;;;9.10;;
37309;SDS011;23195;47.744;7.358;2022-07-22T02:15:50;10.80;;;9.03;;
37309;SDS011;23195;47.744;7.358;2022-07-22T02:18:17;11.63;;;9.50;;
37309;SDS011;23195;47.744;7.358;2022-07-22T02:20:47;10.33;;;8.83;;
37309;SDS011;23195;47.744;7.358;2022-07-22T02:23:12;12.67;;;9.20;;
37309;SDS011;23195;47.744;7.358;2022-07-22T02:25:39;10.80;;;9.37;;
37309;SDS011;23195;47.744;7.358;2022-07-22T02:28:06;13.53;;;9.80;;
37309;SDS011;23195;47.744;7.358;2022-07-22T02:30:32;11.33;;;9.70;;
37309;SDS011;23195;47.744;7.358;2022-07-22T02:33:02;11.80;;;9.60;;
37309;SDS011;23195;47.744;7.358;2022-07-22T02:35:27;11.57;;;9.87;;
37309;SDS011;23195;47.744;7.358;2022-07-22T02:37:53;11.97;;;9.57;;
37309;SDS011;23195;47.744;7.358;2022-07-22T02:40:19;13.33;;;9.73;;
37309;SDS011;23195;47.744;7.358;2022-07-22T02:42:46;11.57;;;9.73;;
37309;SDS011;23195;47.744;7.358;2022-07-22T02:45:12;11.70;;;9.87;;
37309;SDS011;23195;47.744;7.358;2022-07-22T02:47:48;13.23;;;9.70;;
37309;SDS011;23195;47.744;7.358;2022-07-22T02:50:16;11.80;;;9.07;;
37309;SDS011;23195;47.744;7.358;2022-07-22T02:52:42;10.30;;;9.30;;
37309;SDS011;23195;47.744;7.358;2022-07-22T02:55:07;12.33;;;9.80;;
37309;SDS011;23195;47.744;7.358;2022-07-22T02:57:33;10.43;;;9.20;;
37309;SDS011;23195;47.744;7.358;2022-07-22T02:59:59;14.83;;;9.83;;
37309;SDS011;23195;47.744;7.358;2022-07-22T03:02:25;15.03;;;10.10;;
37309;SDS011;23195;47.744;7.358;2022-07-22T03:04:51;14.53;;;10.50;;
37309;SDS011;23195;47.744;7.358;2022-07-22T03:07:17;9.70;;;8.70;;
37309;SDS011;23195;47.744;7.358;2022-07-22T03:09:42;11.23;;;9.93;;
37309;SDS011;23195;47.744;7.358;2022-07-22T03:12:10;12.17;;;10.00;;
37309;SDS011;23195;47.744;7.358;2022-07-22T03:14:37;11.10;;;9.20;;
37309;SDS011;23195;47.744;7.358;2022-07-22T03:17:03;13.30;;;10.27;;
37309;SDS011;23195;47.744;7.358;2022-07-22T03:19:31;13.50;;;9.93;;
37309;SDS011;23195;47.744;7.358;2022-07-22T03:21:58;12.13;;;9.97;;
37309;SDS011;23195;47.744;7.358;2022-07-22T03:24:27;16.60;;;11.00;;
37309;SDS011;23195;47.744;7.358;2022-07-22T03:26:53;13.03;;;10.53;;
37309;SDS011;23195;47.744;7.358;2022-07-22T03:29:21;15.13;;;10.33;;
37309;SDS011;23195;47.744;7.358;2022-07-22T03:31:47;14.53;;;9.80;;
37309;SDS011;23195;47.744;7.358;2022-07-22T03:34:13;14.80;;;10.10;;
37309;SDS011;23195;47.744;7.358;2022-07-22T03:36:39;12.90;;;10.00;;
37309;SDS011;23195;47.744;7.358;2022-07-22T03:39:04;15.53;;;10.60;;
37309;SDS011;23195;47.744;7.358;2022-07-22T03:41:30;13.70;;;10.97;;
37309;SDS011;23195;47.744;7.358;2022-07-22T03:43:56;13.00;;;10.47;;
37309;SDS011;23195;47.744;7.358;2022-07-22T03:46:22;12.77;;;10.70;;
37309;SDS011;23195;47.744;7.358;2022-07-22T03:48:48;12.53;;;10.67;;
37309;SDS011;23195;47.744;7.358;2022-07-22T03:51:14;14.57;;;10.50;;
37309;SDS011;23195;47.744;7.358;2022-07-22T03:53:39;13.77;;;11.07;;
37309;SDS011;23195;47.744;7.358;2022-07-22T03:56:06;13.53;;;11.20;;
37309;SDS011;23195;47.744;7.358;2022-07-22T03:58:32;14.53;;;11.37;;
37309;SDS011;23195;47.744;7.358;2022-07-22T04:00:57;15.23;;;11.53;;
37309;SDS011;23195;47.744;7.358;2022-07-22T04:03:23;13.10;;;11.30;;
37309;SDS011;23195;47.744;7.358;2022-07-22T04:05:49;12.90;;;10.63;;
37309;SDS011;23195;47.744;7.358;2022-07-22T04:08:16;15.40;;;11.63;;
37309;SDS011;23195;47.744;7.358;2022-07-22T04:10:42;13.60;;;11.33;;
37309;SDS011;23195;47.744;7.358;2022-07-22T04:13:09;12.30;;;11.00;;
37309;SDS011;23195;47.744;7.358;2022-07-22T04:15:34;17.17;;;11.27;;
37309;SDS011;23195;47.744;7.358;2022-07-22T04:18:03;15.83;;;11.73;;
37309;SDS011;23195;47.744;7.358;2022-07-22T04:20:29;15.60;;;11.33;;
37309;SDS011;23195;47.744;7.358;2022-07-22T04:22:55;15.57;;;11.17;;
37309;SDS011;23195;47.744;7.358;2022-07-22T04:25:21;14.67;;;11.90;;
37309;SDS011;23195;47.744;7.358;2022-07-22T04:27:46;12.80;;;11.10;;
37309;SDS011;23195;47.744;7.358;2022-07-22T04:30:12;14.10;;;11.67;;
37309;SDS011;23195;47.744;7.358;2022-07-22T04:32:38;15.83;;;11.60;;
37309;SDS011;23195;47.744;7.358;2022-07-22T04:35:04;14.40;;;11.77;;
37309;SDS011;23195;47.744;7.358;2022-07-22T04:37:30;15.27;;;11.40;;
37309;SDS011;23195;47.744;7.358;2022-07-22T04:39:56;13.83;;;11.63;;
37309;SDS011;23195;47.744;7.358;2022-07-22T04:42:25;16.73;;;11.77;;
37309;SDS011;23195;47.744;7.358;2022-07-22T04:44:50;20.07;;;12.20;;
37309;SDS011;23195;47.744;7.358;2022-07-22T04:47:34;13.27;;;11.00;;
37309;SDS011;23195;47.744;7.358;2022-07-22T04:50:02;18.60;;;11.80;;
37309;SDS011;23195;47.744;7.358;2022-07-22T04:52:42;14.90;;;11.57;;
37309;SDS011;23195;47.744;7.358;2022-07-22T04:55:07;13.30;;;10.97;;
37309;SDS011;23195;47.744;7.358;2022-07-22T04:57:36;14.67;;;11.43;;
37309;SDS011;23195;47.744;7.358;2022-07-22T05:00:12;14.40;;;12.03;;
37309;SDS011;23195;47.744;7.358;2022-07-22T05:02:40;17.27;;;11.33;;
37309;SDS011;23195;47.744;7.358;2022-07-22T05:05:06;13.97;;;12.10;;
37309;SDS011;23195;47.744;7.358;2022-07-22T05:07:33;15.87;;;11.63;;
37309;SDS011;23195;47.744;7.358;2022-07-22T05:09:59;13.13;;;11.20;;
37309;SDS011;23195;47.744;7.358;2022-07-22T05:12:24;16.20;;;11.63;;
37309;SDS011;23195;47.744;7.358;2022-07-22T05:14:50;16.00;;;12.03;;
37309;SDS011;23195;47.744;7.358;2022-07-22T05:17:16;13.90;;;12.30;;
37309;SDS011;23195;47.744;7.358;2022-07-22T05:19:42;15.63;;;11.77;;
37309;SDS011;23195;47.744;7.358;2022-07-22T05:22:08;14.27;;;12.37;;
37309;SDS011;23195;47.744;7.358;2022-07-22T05:24:36;14.13;;;11.47;;
37309;SDS011;23195;47.744;7.358;2022-07-22T05:27:05;13.33;;;11.03;;
37309;SDS011;23195;47.744;7.358;2022-07-22T05:29:31;15.00;;;12.83;;
37309;SDS011;23195;47.744;7.358;2022-07-22T05:31:57;14.47;;;12.30;;
37309;SDS011;23195;47.744;7.358;2022-07-22T05:34:23;16.17;;;11.90;;
37309;SDS011;23195;47.744;7.358;2022-07-22T05:36:49;15.17;;;11.40;;
37309;SDS011;23195;47.744;7.358;2022-07-22T05:39:15;16.33;;;12.00;;
37309;SDS011;23195;47.744;7.358;2022-07-22T05:41:40;13.23;;;11.83;;
37309;SDS011;23195;47.744;7.358;2022-07-22T05:44:06;16.50;;;12.43;;
37309;SDS011;23195;47.744;7.358;2022-07-22T05:46:32;16.37;;;12.37;;
37309;SDS011;23195;47.744;7.358;2022-07-22T05:48:58;20.00;;;11.97;;
37309;SDS011;23195;47.744;7.358;2022-07-22T05:51:23;16.50;;;12.50;;
37309;SDS011;23195;47.744;7.358;2022-07-22T05:53:49;17.37;;;12.97;;
37309;SDS011;23195;47.744;7.358;2022-07-22T05:56:15;15.20;;;12.70;;
37309;SDS011;23195;47.744;7.358;2022-07-22T05:58:41;17.57;;;12.60;;
37309;SDS011;23195;47.744;7.358;2022-07-22T06:01:10;14.03;;;11.43;;
37309;SDS011;23195;47.744;7.358;2022-07-22T06:03:36;13.47;;;12.07;;
37309;SDS011;23195;47.744;7.358;2022-07-22T06:06:03;14.07;;;12.33;;
37309;SDS011;23195;47.744;7.358;2022-07-22T06:08:32;17.63;;;11.60;;
37309;SDS011;23195;47.744;7.358;2022-07-22T06:10:58;19.17;;;11.50;;
37309;SDS011;23195;47.744;7.358;2022-07-22T06:13:25;13.40;;;11.93;;
37309;SDS011;23195;47.744;7.358;2022-07-22T06:15:51;15.73;;;11.97;;
37309;SDS011;23195;47.744;7.358;2022-07-22T06:18:26;13.77;;;12.13;;
37309;SDS011;23195;47.744;7.358;2022-07-22T06:24:53;15.17;;;12.27;;
37309;SDS011;23195;47.744;7.358;2022-07-22T06:27:19;15.93;;;12.27;;
37309;SDS011;23195;47.744;7.358;2022-07-22T06:29:45;15.70;;;12.23;;
37309;SDS011;23195;47.744;7.358;2022-07-22T06:32:11;15.13;;;12.00;;
37309;SDS011;23195;47.744;7.358;2022-07-22T06:34:37;17.20;;;12.30;;
37309;SDS011;23195;47.744;7.358;2022-07-22T06:37:03;18.37;;;13.03;;
37309;SDS011;23195;47.744;7.358;2022-07-22T06:39:29;21.83;;;11.40;;
37309;SDS011;23195;47.744;7.358;2022-07-22T06:41:54;17.77;;;13.17;;
37309;SDS011;23195;47.744;7.358;2022-07-22T06:44:20;22.30;;;13.13;;
37309;SDS011;23195;47.744;7.358;2022-07-22T06:46:46;15.27;;;13.13;;
37309;SDS011;23195;47.744;7.358;2022-07-22T06:49:15;16.03;;;11.53;;
37309;SDS011;23195;47.744;7.358;2022-07-22T06:51:41;17.27;;;12.30;;
37309;SDS011;23195;47.744;7.358;2022-07-22T06:54:06;17.37;;;12.07;;
37309;SDS011;23195;47.744;7.358;2022-07-22T06:56:32;15.87;;;12.50;;
37309;SDS011;23195;47.744;7.358;2022-07-22T06:58:58;20.33;;;11.97;;
37309;SDS011;23195;47.744;7.358;2022-07-22T07:01:24;15.27;;;11.60;;
37309;SDS011;23195;47.744;7.358;2022-07-22T07:03:50;16.20;;;11.40;;
37309;SDS011;23195;47.744;7.358;2022-07-22T07:06:16;14.73;;;10.67;;
37309;SDS011;23195;47.744;7.358;2022-07-22T07:08:45;23.47;;;11.17;;
37309;SDS011;23195;47.744;7.358;2022-07-22T07:11:18;18.07;;;10.73;;
37309;SDS011;23195;47.744;7.358;2022-07-22T07:13:51;17.20;;;9.90;;
37309;SDS011;23195;47.744;7.358;2022-07-22T07:16:20;10.47;;;9.37;;
37309;SDS011;23195;47.744;7.358;2022-07-22T07:18:46;15.27;;;10.93;;
37309;SDS011;23195;47.744;7.358;2022-07-22T07:21:12;14.13;;;10.27;;
37309;SDS011;23195;47.744;7.358;2022-07-22T07:23:38;13.13;;;9.93;;
37309;SDS011;23195;47.744;7.358;2022-07-22T07:26:13;12.77;;;10.13;;
37309;SDS011;23195;47.744;7.358;2022-07-22T07:28:40;13.00;;;9.90;;
37309;SDS011;23195;47.744;7.358;2022-07-22T07:31:06;12.27;;;8.93;;
37309;SDS011;23195;47.744;7.358;2022-07-22T07:33:33;13.37;;;10.50;;
37309;SDS011;23195;47.744;7.358;2022-07-22T07:36:05;11.57;;;10.17;;
37309;SDS011;23195;47.744;7.358;2022-07-22T07:38:32;11.27;;;10.17;;
37309;SDS011;23195;47.744;7.358;2022-07-22T07:40:59;11.93;;;10.20;;
37309;SDS011;23195;47.744;7.358;2022-07-22T07:43:26;11.80;;;10.50;;
37309;SDS011;23195;47.744;7.358;2022-07-22T07:45:52;10.90;;;9.70;;
37309;SDS011;23195;47.744;7.358;2022-07-22T07:48:19;13.90;;;10.90;;
37309;SDS011;23195;47.744;7.358;2022-07-22T07:50:46;11.53;;;10.20;;
37309;SDS011;23195;47.744;7.358;2022-07-22T07:53:33;10.13;;;9.13;;
37309;SDS011;23195;47.744;7.358;2022-07-22T07:56:08;10.53;;;9.37;;
37309;SDS011;23195;47.744;7.358;2022-07-22T07:58:47;11.50;;;9.50;;
37309;SDS011;23195;47.744;7.358;2022-07-22T08:01:13;11.03;;;8.90;;
37309;SDS011;23195;47.744;7.358;2022-07-22T08:03:42;10.47;;;9.40;;
37309;SDS011;23195;47.744;7.358;2022-07-22T08:06:08;13.77;;;9.77;;
37309;SDS011;23195;47.744;7.358;2022-07-22T08:08:34;9.87;;;8.87;;
37309;SDS011;23195;47.744;7.358;2022-07-22T08:11:03;10.37;;;8.77;;
37309;SDS011;23195;47.744;7.358;2022-07-22T08:13:29;10.50;;;9.48;;
37309;SDS011;23195;47.744;7.358;2022-07-22T08:15:55;10.23;;;8.83;;
37309;SDS011;23195;47.744;7.358;2022-07-22T08:18:21;13.73;;;9.80;;
37309;SDS011;23195;47.744;7.358;2022-07-22T08:20:50;11.00;;;9.30;;
37309;SDS011;23195;47.744;7.358;2022-07-22T08:23:18;10.83;;;9.47;;
37309;SDS011;23195;47.744;7.358;2022-07-22T08:25:44;10.07;;;8.93;;
37309;SDS011;23195;47.744;7.358;2022-07-22T08:31:15;11.67;;;9.03;;
37309;SDS011;23195;47.744;7.358;2022-07-22T08:33:49;9.93;;;8.93;;
37309;SDS011;23195;47.744;7.358;2022-07-22T08:36:19;9.20;;;8.30;;
37309;SDS011;23195;47.744;7.358;2022-07-22T08:38:45;12.80;;;7.90;;
37309;SDS011;23195;47.744;7.358;2022-07-22T08:41:11;9.37;;;8.33;;
37309;SDS011;23195;47.744;7.358;2022-07-22T08:43:39;8.40;;;7.70;;
37309;SDS011;23195;47.744;7.358;2022-07-22T08:46:10;8.43;;;7.57;;
37309;SDS011;23195;47.744;7.358;2022-07-22T08:48:36;11.10;;;8.30;;
37309;SDS011;23195;47.744;7.358;2022-07-22T08:51:11;11.83;;;8.10;;
37309;SDS011;23195;47.744;7.358;2022-07-22T08:53:37;10.97;;;8.00;;
37309;SDS011;23195;47.744;7.358;2022-07-22T08:56:02;8.13;;;7.37;;
37309;SDS011;23195;47.744;7.358;2022-07-22T08:58:47;9.37;;;7.67;;
37309;SDS011;23195;47.744;7.358;2022-07-22T09:01:14;8.87;;;6.97;;
37309;SDS011;23195;47.744;7.358;2022-07-22T09:03:48;9.50;;;7.17;;
37309;SDS011;23195;47.744;7.358;2022-07-22T09:06:24;9.07;;;7.20;;
37309;SDS011;23195;47.744;7.358;2022-07-22T09:09:02;8.47;;;7.40;;
37309;SDS011;23195;47.744;7.358;2022-07-22T09:11:54;8.60;;;7.83;;
37309;SDS011;23195;47.744;7.358;2022-07-22T09:14:46;8.27;;;7.03;;
37309;SDS011;23195;47.744;7.358;2022-07-22T09:17:34;8.85;;;7.15;;
37309;SDS011;23195;47.744;7.358;2022-07-22T09:20:05;7.90;;;7.05;;
37309;SDS011;23195;47.744;7.358;2022-07-22T09:22:44;8.60;;;7.43;;
37309;SDS011;23195;47.744;7.358;2022-07-22T09:25:33;9.85;;;7.63;;
37309;SDS011;23195;47.744;7.358;2022-07-22T09:30:40;12.53;;;8.13;;
37309;SDS011;23195;47.744;7.358;2022-07-22T09:33:17;8.33;;;7.13;;
37309;SDS011;23195;47.744;7.358;2022-07-22T09:36:04;9.10;;;8.10;;
37309;SDS011;23195;47.744;7.358;2022-07-22T09:48:38;9.53;;;7.63;;
37309;SDS011;23195;47.744;7.358;2022-07-22T09:51:24;8.40;;;6.93;;
37309;SDS011;23195;47.744;7.358;2022-07-22T09:53:50;10.13;;;7.70;;
37309;SDS011;23195;47.744;7.358;2022-07-22T09:56:33;9.43;;;7.60;;
37309;SDS011;23195;47.744;7.358;2022-07-22T10:05:41;9.37;;;7.90;;
37309;SDS011;23195;47.744;7.358;2022-07-22T10:08:44;10.00;;;8.43;;
37309;SDS011;23195;47.744;7.358;2022-07-22T10:11:10;11.77;;;8.57;;
37309;SDS011;23195;47.744;7.358;2022-07-22T10:17:15;11.83;;;8.40;;
37309;SDS011;23195;47.744;7.358;2022-07-22T10:19:50;12.20;;;9.13;;
37309;SDS011;23195;47.744;7.358;2022-07-22T10:25:07;10.17;;;8.40;;
37309;SDS011;23195;47.744;7.358;2022-07-22T10:30:23;11.23;;;8.10;;
37309;SDS011;23195;47.744;7.358;2022-07-22T10:35:55;9.23;;;8.20;;
37309;SDS011;23195;47.744;7.358;2022-07-22T10:38:23;10.50;;;8.13;;
37309;SDS011;23195;47.744;7.358;2022-07-22T10:40:56;8.80;;;7.70;;
37309;SDS011;23195;47.744;7.358;2022-07-22T10:43:29;11.53;;;8.23;;
37309;SDS011;23195;47.744;7.358;2022-07-22T10:46:13;8.83;;;7.93;;
37309;SDS011;23195;47.744;7.358;2022-07-22T10:49:05;10.77;;;8.13;;
37309;SDS011;23195;47.744;7.358;2022-07-22T10:51:35;9.40;;;8.47;;
37309;SDS011;23195;47.744;7.358;2022-07-22T10:54:01;8.90;;;8.00;;
37309;SDS011;23195;47.744;7.358;2022-07-22T10:56:28;12.17;;;8.33;;
37309;SDS011;23195;47.744;7.358;2022-07-22T10:59:09;13.33;;;8.73;;
37309;SDS011;23195;47.744;7.358;2022-07-22T11:01:39;8.23;;;7.53;;
37309;SDS011;23195;47.744;7.358;2022-07-22T11:04:51;8.67;;;7.80;;
37309;SDS011;23195;47.744;7.358;2022-07-22T11:07:47;9.17;;;8.20;;
37309;SDS011;23195;47.744;7.358;2022-07-22T11:10:15;9.30;;;8.20;;
37309;SDS011;23195;47.744;7.358;2022-07-22T11:12:43;10.03;;;8.07;;
37309;SDS011;23195;47.744;7.358;2022-07-22T11:15:09;9.87;;;7.73;;
37309;SDS011;23195;47.744;7.358;2022-07-22T11:17:36;8.33;;;7.53;;
37309;SDS011;23195;47.744;7.358;2022-07-22T11:20:07;9.17;;;7.67;;
37309;SDS011;23195;47.744;7.358;2022-07-22T11:22:34;9.27;;;8.37;;
37309;SDS011;23195;47.744;7.358;2022-07-22T11:25:05;9.67;;;7.50;;
37309;SDS011;23195;47.744;7.358;2022-07-22T11:27:32;8.93;;;8.10;;
37309;SDS011;23195;47.744;7.358;2022-07-22T11:29:58;11.10;;;8.07;;
37309;SDS011;23195;47.744;7.358;2022-07-22T11:32:32;15.23;;;8.17;;
37309;SDS011;23195;47.744;7.358;2022-07-22T11:35:01;8.93;;;8.03;;
37309;SDS011;23195;47.744;7.358;2022-07-22T11:37:36;13.23;;;8.20;;
37309;SDS011;23195;47.744;7.358;2022-07-22T11:40:05;10.70;;;7.50;;
37309;SDS011;23195;47.744;7.358;2022-07-22T11:42:33;12.60;;;8.10;;
37309;SDS011;23195;47.744;7.358;2022-07-22T11:45:00;8.77;;;7.80;;
37309;SDS011;23195;47.744;7.358;2022-07-22T11:47:48;10.50;;;7.77;;
37309;SDS011;23195;47.744;7.358;2022-07-22T11:50:22;10.37;;;8.17;;
37309;SDS011;23195;47.744;7.358;2022-07-22T11:53:41;9.80;;;8.33;;
37309;SDS011;23195;47.744;7.358;2022-07-22T11:56:23;12.63;;;7.77;;
37309;SDS011;23195;47.744;7.358;2022-07-22T11:58:52;13.60;;;7.70;;
37309;SDS011;23195;47.744;7.358;2022-07-22T12:01:40;12.07;;;7.57;;
37309;SDS011;23195;47.744;7.358;2022-07-22T12:04:25;8.23;;;7.40;;
37309;SDS011;23195;47.744;7.358;2022-07-22T12:06:52;8.80;;;7.90;;
37309;SDS011;23195;47.744;7.358;2022-07-22T12:11:57;10.50;;;7.47;;
37309;SDS011;23195;47.744;7.358;2022-07-22T12:14:27;10.27;;;7.70;;
37309;SDS011;23195;47.744;7.358;2022-07-22T12:17:26;8.07;;;6.97;;
37309;SDS011;23195;47.744;7.358;2022-07-22T12:20:05;10.33;;;8.30;;
37309;SDS011;23195;47.744;7.358;2022-07-22T12:22:51;9.47;;;7.13;;
37309;SDS011;23195;47.744;7.358;2022-07-22T12:26:02;9.87;;;7.77;;
37309;SDS011;23195;47.744;7.358;2022-07-22T12:28:33;10.57;;;7.57;;
37309;SDS011;23195;47.744;7.358;2022-07-22T12:31:08;8.33;;;7.37;;
37309;SDS011;23195;47.744;7.358;2022-07-22T12:36:46;11.23;;;7.53;;
37309;SDS011;23195;47.744;7.358;2022-07-22T12:39:13;8.17;;;7.47;;
37309;SDS011;23195;47.744;7.358;2022-07-22T12:41:45;10.77;;;7.50;;
37309;SDS011;23195;47.744;7.358;2022-07-22T12:44:19;10.20;;;7.90;;
37309;SDS011;23195;47.744;7.358;2022-07-22T12:46:49;8.13;;;7.33;;
37309;SDS011;23195;47.744;7.358;2022-07-22T12:49:20;10.33;;;7.43;;
37309;SDS011;23195;47.744;7.358;2022-07-22T12:52:09;8.27;;;7.20;;
37309;SDS011;23195;47.744;7.358;2022-07-22T12:54:39;11.03;;;7.13;;
37309;SDS011;23195;47.744;7.358;2022-07-22T12:57:06;7.70;;;6.90;;
37309;SDS011;23195;47.744;7.358;2022-07-22T12:59:57;8.90;;;6.80;;
37309;SDS011;23195;47.744;7.358;2022-07-22T13:09:27;9.00;;;7.23;;
37309;SDS011;23195;47.744;7.358;2022-07-22T13:11:55;8.67;;;6.80;;
37309;SDS011;23195;47.744;7.358;2022-07-22T13:14:21;9.37;;;6.90;;
37309;SDS011;23195;47.744;7.358;2022-07-22T13:16:46;7.43;;;6.43;;
37309;SDS011;23195;47.744;7.358;2022-07-22T13:19:12;7.60;;;6.83;;
37309;SDS011;23195;47.744;7.358;2022-07-22T13:21:38;9.60;;;6.80;;
37309;SDS011;23195;47.744;7.358;2022-07-22T13:26:59;7.13;;;6.33;;
37309;SDS011;23195;47.744;7.358;2022-07-22T13:29:31;7.50;;;6.27;;
37309;SDS011;23195;47.744;7.358;2022-07-22T13:35:44;11.57;;;6.33;;
37309;SDS011;23195;47.744;7.358;2022-07-22T13:38:37;7.73;;;6.93;;
37309;SDS011;23195;47.744;7.358;2022-07-22T13:41:06;7.43;;;6.67;;
37309;SDS011;23195;47.744;7.358;2022-07-22T13:43:42;8.77;;;6.57;;
37309;SDS011;23195;47.744;7.358;2022-07-22T13:46:09;10.97;;;7.07;;
37309;SDS011;23195;47.744;7.358;2022-07-22T13:48:39;9.00;;;6.37;;
37309;SDS011;23195;47.744;7.358;2022-07-22T13:51:18;7.00;;;6.30;;
37309;SDS011;23195;47.744;7.358;2022-07-22T13:53:47;6.57;;;5.67;;
37309;SDS011;23195;47.744;7.358;2022-07-22T13:56:41;5.97;;;5.37;;
37309;SDS011;23195;47.744;7.358;2022-07-22T14:02:23;7.10;;;5.97;;
37309;SDS011;23195;47.744;7.358;2022-07-22T14:04:51;7.27;;;5.30;;
37309;SDS011;23195;47.744;7.358;2022-07-22T14:07:17;6.67;;;6.00;;
37309;SDS011;23195;47.744;7.358;2022-07-22T14:09:43;6.73;;;6.00;;
37309;SDS011;23195;47.744;7.358;2022-07-22T14:12:09;6.47;;;5.37;;
37309;SDS011;23195;47.744;7.358;2022-07-22T14:17:36;8.70;;;6.00;;
37309;SDS011;23195;47.744;7.358;2022-07-22T14:20:20;7.87;;;5.90;;
37309;SDS011;23195;47.744;7.358;2022-07-22T14:22:45;6.90;;;6.20;;
37309;SDS011;23195;47.744;7.358;2022-07-22T14:25:11;7.63;;;6.33;;
37309;SDS011;23195;47.744;7.358;2022-07-22T14:27:37;6.17;;;5.57;;
37309;SDS011;23195;47.744;7.358;2022-07-22T14:30:03;7.13;;;6.47;;
37309;SDS011;23195;47.744;7.358;2022-07-22T14:32:30;6.53;;;5.40;;
37309;SDS011;23195;47.744;7.358;2022-07-22T14:35:01;7.57;;;6.50;;
37309;SDS011;23195;47.744;7.358;2022-07-22T14:37:33;6.80;;;6.10;;
37309;SDS011;23195;47.744;7.358;2022-07-22T14:40:05;6.57;;;6.07;;
37309;SDS011;23195;47.744;7.358;2022-07-22T14:42:53;6.87;;;6.23;;
37309;SDS011;23195;47.744;7.358;2022-07-22T14:45:19;7.97;;;6.33;;
37309;SDS011;23195;47.744;7.358;2022-07-22T14:47:47;6.60;;;6.00;;
37309;SDS011;23195;47.744;7.358;2022-07-22T14:50:13;6.83;;;6.13;;
37309;SDS011;23195;47.744;7.358;2022-07-22T14:52:39;11.27;;;5.90;;
37309;SDS011;23195;47.744;7.358;2022-07-22T14:55:05;7.00;;;5.70;;
37309;SDS011;23195;47.744;7.358;2022-07-22T14:57:34;9.93;;;6.03;;
37309;SDS011;23195;47.744;7.358;2022-07-22T15:00:03;7.90;;;6.63;;
37309;SDS011;23195;47.744;7.358;2022-07-22T15:02:29;6.50;;;5.70;;
37309;SDS011;23195;47.744;7.358;2022-07-22T15:04:55;6.37;;;5.77;;
37309;SDS011;23195;47.744;7.358;2022-07-22T15:07:21;7.57;;;6.57;;
37309;SDS011;23195;47.744;7.358;2022-07-22T15:09:46;9.20;;;6.23;;
37309;SDS011;23195;47.744;7.358;2022-07-22T15:12:12;7.60;;;6.10;;
37309;SDS011;23195;47.744;7.358;2022-07-22T15:14:38;8.00;;;6.30;;
37309;SDS011;23195;47.744;7.358;2022-07-22T15:17:04;6.90;;;6.20;;
37309;SDS011;23195;47.744;7.358;2022-07-22T15:19:30;7.27;;;6.57;;
37309;SDS011;23195;47.744;7.358;2022-07-22T15:21:55;6.87;;;6.23;;
37309;SDS011;23195;47.744;7.358;2022-07-22T15:24:22;6.97;;;6.03;;
37309;SDS011;23195;47.744;7.358;2022-07-22T15:26:48;9.43;;;6.50;;
37309;SDS011;23195;47.744;7.358;2022-07-22T15:29:17;7.53;;;6.73;;
37309;SDS011;23195;47.744;7.358;2022-07-22T15:31:43;6.67;;;5.97;;
37309;SDS011;23195;47.744;7.358;2022-07-22T15:34:12;7.00;;;6.40;;
37309;SDS011;23195;47.744;7.358;2022-07-22T15:36:38;9.47;;;6.10;;
37309;SDS011;23195;47.744;7.358;2022-07-22T15:39:03;7.30;;;6.60;;
37309;SDS011;23195;47.744;7.358;2022-07-22T15:41:29;7.07;;;6.37;;
37309;SDS011;23195;47.744;7.358;2022-07-22T15:43:55;7.40;;;6.33;;
37309;SDS011;23195;47.744;7.358;2022-07-22T15:46:22;7.90;;;6.20;;
37309;SDS011;23195;47.744;7.358;2022-07-22T15:48:48;7.47;;;6.30;;
37309;SDS011;23195;47.744;7.358;2022-07-22T15:51:14;7.20;;;6.30;;
37309;SDS011;23195;47.744;7.358;2022-07-22T15:53:40;7.97;;;6.43;;